Time;durP1;ratioP1;P1;durP2;ratioP2;P2;SDS_P1;SDS_P2;PMS_P1;PMS_P2;Temp;Humidity;BMP_temperature;BMP_pressure;BME280_temperature;BME280_humidity;BME280_pressure;Samples;Min_cycle;Max_cycle;Signal;HPM_P1;HPM_P2
2023/08/16 00:00:22;;;;;;;5.05;3.47;;;22.20;71.20;;;;;;5033475;28;20029;-74
2023/08/16 00:02:48;;;;;;;8.07;4.05;;;22.20;71.20;;;;;;5015671;28;20124;-76
2023/08/16 00:05:14;;;;;;;6.63;3.83;;;22.20;71.30;;;;;;5033410;28;20073;-88
2023/08/16 00:07:40;;;;;;;6.25;3.40;;;22.20;71.10;;;;;;5033280;28;20474;-74
2023/08/16 00:10:11;;;;;;;6.13;4.32;;;22.20;70.90;;;;;;5033501;28;20105;-73
2023/08/16 00:12:37;;;;;;;5.50;3.67;;;22.30;70.80;;;;;;5036517;28;20036;-73
2023/08/16 00:15:02;;;;;;;5.28;3.80;;;22.30;70.70;;;;;;5039073;28;20030;-73
2023/08/16 00:17:28;;;;;;;5.80;3.92;;;22.30;70.70;;;;;;5043769;28;20017;-74
2023/08/16 00:19:53;;;;;;;6.30;3.60;;;22.30;70.70;;;;;;5034486;28;20052;-84
2023/08/16 00:22:19;;;;;;;6.22;3.58;;;22.30;70.70;;;;;;5033740;28;20472;-76
2023/08/16 00:24:45;;;;;;;5.03;3.53;;;22.30;70.70;;;;;;5034320;28;20084;-74
2023/08/16 00:27:10;;;;;;;6.05;3.90;;;22.30;70.70;;;;;;5032739;28;20032;-74
2023/08/16 00:29:36;;;;;;;8.88;4.15;;;22.30;70.60;;;;;;5032943;28;20030;-75
2023/08/16 00:32:04;;;;;;;6.10;4.00;;;22.30;70.70;;;;;;5032643;28;20029;-79
2023/08/16 00:34:30;;;;;;;7.50;3.97;;;22.20;71.00;;;;;;5032995;28;20051;-89
2023/08/16 00:36:55;;;;;;;7.85;4.03;;;22.20;72.40;;;;;;5033082;28;20108;-72
2023/08/16 00:39:21;;;;;;;10.70;4.82;;;22.10;73.10;;;;;;5032602;28;20079;-75
2023/08/16 00:41:46;;;;;;;7.00;4.97;;;22.00;73.50;;;;;;5032373;28;20021;-73
2023/08/16 00:44:12;;;;;;;8.65;5.07;;;21.80;74.30;;;;;;5035745;28;20030;-73
2023/08/16 00:46:37;;;;;;;8.15;4.78;;;21.70;75.10;;;;;;5036314;28;20029;-76
2023/08/16 00:49:04;;;;;;;5.80;4.60;;;21.60;75.60;;;;;;5036852;28;20100;-79
2023/08/16 00:51:29;;;;;;;6.57;4.90;;;21.50;76.20;;;;;;5035934;28;20121;-76
2023/08/16 00:53:55;;;;;;;5.75;4.82;;;21.40;76.00;;;;;;5036255;28;20041;-75
2023/08/16 00:56:21;;;;;;;7.53;4.78;;;21.20;76.40;;;;;;5036554;28;20498;-76
2023/08/16 00:58:47;;;;;;;7.72;5.38;;;21.00;76.90;;;;;;5036454;28;20036;-76
2023/08/16 01:01:12;;;;;;;6.63;5.03;;;21.10;77.00;;;;;;5036621;28;20024;-73
2023/08/16 01:03:38;;;;;;;6.97;4.85;;;21.10;77.10;;;;;;5036365;28;20047;-82
2023/08/16 01:06:04;;;;;;;5.80;4.25;;;21.10;77.20;;;;;;5036170;28;20041;-82
2023/08/16 01:08:31;;;;;;;5.57;4.47;;;21.10;77.20;;;;;;5035870;28;20490;-72
2023/08/16 01:11:03;;;;;;;8.38;4.65;;;21.20;77.10;;;;;;5035437;28;20117;-72
2023/08/16 01:13:41;;;;;;;10.50;4.60;;;21.20;76.50;;;;;;5035357;28;20386;-72
2023/08/16 01:16:09;;;;;;;8.07;4.47;;;21.30;76.10;;;;;;5038984;28;20033;-74
2023/08/16 01:18:37;;;;;;;9.02;5.03;;;21.30;75.80;;;;;;5041340;28;20095;-72
2023/08/16 01:21:04;;;;;;;9.13;4.72;;;21.30;75.40;;;;;;5038374;28;20040;-72
2023/08/16 01:24:01;;;;;;;8.82;5.07;;;21.30;75.40;;;;;;5035324;28;20497;-72
2023/08/16 01:26:28;;;;;;;10.25;5.18;;;21.20;75.40;;;;;;5035512;28;20029;-81
2023/08/16 01:28:55;;;;;;;7.57;4.68;;;21.10;75.50;;;;;;5035676;28;20025;-72
2023/08/16 01:31:21;;;;;;;11.05;5.05;;;21.00;75.90;;;;;;5035476;28;20024;-72
2023/08/16 01:33:46;;;;;;;7.63;4.80;;;20.90;76.30;;;;;;5035612;28;20030;-83
2023/08/16 01:36:12;;;;;;;7.97;4.90;;;20.80;76.60;;;;;;5035285;28;20041;-72
2023/08/16 01:38:38;;;;;;;10.38;5.10;;;20.80;77.10;;;;;;5035569;28;20018;-85
2023/08/16 01:41:15;;;;;;;11.20;5.05;;;20.70;77.30;;;;;;5035275;28;20371;-73
2023/08/16 01:43:43;;;;;;;7.50;4.80;;;20.60;77.50;;;;;;5035357;28;20360;-84
2023/08/16 01:46:10;;;;;;;8.10;4.80;;;20.60;77.60;;;;;;5035224;28;20033;-87
2023/08/16 01:48:37;;;;;;;6.97;5.05;;;20.60;77.70;;;;;;5035200;28;20049;-72
2023/08/16 01:51:04;;;;;;;9.65;5.00;;;20.60;77.40;;;;;;5035381;28;20026;-72
2023/08/16 01:53:29;;;;;;;9.07;4.93;;;20.60;77.30;;;;;;5035063;28;20022;-72
2023/08/16 01:55:55;;;;;;;7.93;5.22;;;20.60;78.40;;;;;;5034188;28;20027;-72
2023/08/16 01:58:21;;;;;;;8.57;4.90;;;20.60;77.50;;;;;;5034620;28;20025;-72
2023/08/16 02:00:46;;;;;;;6.45;4.80;;;20.70;77.60;;;;;;5034768;28;20130;-72
2023/08/16 02:03:12;;;;;;;14.57;5.43;;;20.70;77.40;;;;;;5034730;28;20033;-72
2023/08/16 02:05:37;;;;;;;10.23;5.22;;;20.80;77.10;;;;;;5034452;28;20059;-72
2023/08/16 02:08:03;;;;;;;6.13;4.80;;;20.60;77.40;;;;;;5034708;28;20032;-72
2023/08/16 02:10:29;;;;;;;7.53;4.60;;;20.50;77.60;;;;;;5034450;28;20060;-72
2023/08/16 02:12:54;;;;;;;7.05;5.28;;;20.40;78.30;;;;;;5034580;28;20057;-72
2023/08/16 02:15:20;;;;;;;6.03;5.40;;;20.30;79.20;;;;;;5034466;28;20044;-72
2023/08/16 02:17:46;;;;;;;7.50;5.32;;;20.20;79.20;;;;;;5034486;28;20022;-72
2023/08/16 02:20:12;;;;;;;7.95;5.00;;;20.30;79.40;;;;;;5034360;28;20108;-72
2023/08/16 02:22:39;;;;;;;7.57;5.32;;;20.30;79.30;;;;;;5034548;28;20052;-79
2023/08/16 02:25:05;;;;;;;7.18;5.00;;;20.40;79.00;;;;;;5034245;28;20026;-72
2023/08/16 02:27:32;;;;;;;6.53;4.50;;;20.40;78.80;;;;;;5034287;28;20036;-73
2023/08/16 02:29:58;;;;;;;8.57;4.82;;;20.50;78.40;;;;;;5034068;28;20029;-72
2023/08/16 02:32:24;;;;;;;8.57;4.80;;;20.50;78.00;;;;;;5034305;28;20041;-76
2023/08/16 02:34:49;;;;;;;5.82;4.55;;;20.60;77.50;;;;;;5034109;28;20397;-72
2023/08/16 02:37:15;;;;;;;7.85;4.88;;;20.50;77.50;;;;;;5033712;28;20433;-73
2023/08/16 02:39:40;;;;;;;9.45;4.60;;;20.50;77.50;;;;;;5033947;28;20589;-72
2023/08/16 02:42:06;;;;;;;7.90;4.55;;;20.50;77.60;;;;;;5033912;28;20477;-74
2023/08/16 02:44:31;;;;;;;6.78;4.25;;;20.50;77.50;;;;;;5033955;28;20036;-82
2023/08/16 02:46:57;;;;;;;5.22;4.70;;;20.50;77.40;;;;;;5033780;28;20025;-71
2023/08/16 02:49:22;;;;;;;8.13;4.88;;;20.50;77.40;;;;;;5033716;28;20036;-72
2023/08/16 02:51:48;;;;;;;5.35;4.50;;;20.40;77.60;;;;;;5033716;28;20026;-73
2023/08/16 02:54:14;;;;;;;8.40;5.00;;;20.30;77.80;;;;;;5033692;28;20091;-72
2023/08/16 02:56:40;;;;;;;7.80;4.97;;;20.30;78.00;;;;;;5033802;28;20029;-72
2023/08/16 02:59:08;;;;;;;9.57;4.93;;;20.20;78.20;;;;;;5033912;28;20421;-78
2023/08/16 03:01:34;;;;;;;6.32;5.15;;;20.20;78.20;;;;;;5033979;28;20100;-73
2023/08/16 03:03:59;;;;;;;7.45;4.72;;;20.20;78.30;;;;;;5034011;28;20026;-75
2023/08/16 03:06:25;;;;;;;5.82;4.45;;;20.20;78.20;;;;;;5033688;28;20033;-74
2023/08/16 03:08:50;;;;;;;6.75;4.68;;;20.30;78.10;;;;;;5034507;28;20541;-71
2023/08/16 03:11:16;;;;;;;7.20;4.50;;;20.30;77.70;;;;;;5033687;28;20486;-73
2023/08/16 03:13:41;;;;;;;8.27;4.80;;;20.30;77.50;;;;;;5015868;28;20079;-72
2023/08/16 03:16:07;;;;;;;7.25;4.53;;;20.30;77.40;;;;;;5015847;28;20490;-80
2023/08/16 03:18:33;;;;;;;7.88;4.78;;;20.30;77.30;;;;;;5015840;28;20090;-72
2023/08/16 03:20:58;;;;;;;5.72;4.72;;;20.30;77.40;;;;;;5016018;28;20125;-72
2023/08/16 03:23:24;;;;;;;11.55;6.03;;;20.30;77.80;;;;;;5016338;28;20036;-92
2023/08/16 03:25:49;;;;;;;7.55;5.07;;;20.10;78.80;;;;;;5016384;28;20500;-76
2023/08/16 03:28:15;;;;;;;6.70;5.07;;;20.00;79.70;;;;;;5016057;28;20485;-76
2023/08/16 03:30:40;;;;;;;8.23;4.50;;;20.00;79.10;;;;;;5035332;28;20484;-72
2023/08/16 03:33:06;;;;;;;6.88;5.10;;;20.00;79.00;;;;;;5034612;28;20059;-72
2023/08/16 03:35:31;;;;;;;8.77;4.63;;;20.00;78.90;;;;;;5034017;28;20496;-73
2023/08/16 03:37:57;;;;;;;6.63;4.78;;;20.00;78.60;;;;;;5033161;28;20067;-77
2023/08/16 03:40:22;;;;;;;7.72;5.07;;;20.00;78.70;;;;;;5033443;28;20029;-91
2023/08/16 03:42:48;;;;;;;8.05;4.40;;;20.10;78.70;;;;;;5015344;28;20071;-75
2023/08/16 03:45:13;;;;;;;7.13;4.53;;;20.00;78.10;;;;;;5032741;28;20075;-73
2023/08/16 03:47:39;;;;;;;5.55;4.22;;;20.00;77.80;;;;;;5033950;28;20467;-73
2023/08/16 03:50:05;;;;;;;7.25;4.57;;;20.00;77.60;;;;;;5036168;28;20032;-73
2023/08/16 03:52:31;;;;;;;7.45;5.20;;;20.00;77.90;;;;;;5035259;28;20084;-72
2023/08/16 03:54:56;;;;;;;6.85;4.47;;;19.90;78.10;;;;;;5039086;28;20040;-75
2023/08/16 03:57:23;;;;;;;6.13;4.35;;;19.90;78.30;;;;;;5035518;28;20029;-72
2023/08/16 03:59:51;;;;;;;5.70;4.60;;;19.90;78.50;;;;;;5035463;28;20366;-75
2023/08/16 04:02:17;;;;;;;7.43;4.18;;;19.90;78.50;;;;;;5033848;28;20028;-76
2023/08/16 04:04:42;;;;;;;8.73;4.32;;;19.90;78.70;;;;;;5015817;28;20056;-83
2023/08/16 04:07:08;;;;;;;5.25;4.50;;;19.80;78.60;;;;;;5033476;28;20029;-80
2023/08/16 04:09:35;;;;;;;6.05;4.90;;;19.80;78.40;;;;;;5033915;28;20053;-74
2023/08/16 04:12:00;;;;;;;5.90;4.40;;;19.90;78.40;;;;;;5033986;28;20117;-73
2023/08/16 04:14:26;;;;;;;6.45;4.20;;;19.90;78.20;;;;;;5033020;28;20478;-73
2023/08/16 04:16:51;;;;;;;6.15;4.78;;;19.90;78.30;;;;;;5033285;28;20026;-73
2023/08/16 04:19:17;;;;;;;6.22;4.90;;;19.80;79.10;;;;;;5036913;28;20029;-72
2023/08/16 04:21:42;;;;;;;8.55;4.78;;;19.90;78.40;;;;;;5037398;28;20458;-73
2023/08/16 04:24:08;;;;;;;7.20;4.75;;;19.90;78.20;;;;;;5036410;28;20029;-74
2023/08/16 04:26:33;;;;;;;7.78;4.63;;;19.90;78.10;;;;;;5036075;28;20048;-72
2023/08/16 04:28:59;;;;;;;7.45;4.85;;;19.90;78.20;;;;;;5036497;28;20029;-73
2023/08/16 04:31:24;;;;;;;9.73;4.38;;;19.90;78.30;;;;;;5037368;28;20026;-80
2023/08/16 04:33:50;;;;;;;8.00;4.50;;;19.90;78.00;;;;;;5036729;28;20030;-75
2023/08/16 04:36:16;;;;;;;6.93;4.68;;;19.90;77.70;;;;;;5036836;28;20090;-72
2023/08/16 04:38:42;;;;;;;6.35;4.55;;;19.80;77.40;;;;;;5036714;28;20387;-87
2023/08/16 04:41:07;;;;;;;9.20;4.88;;;19.80;77.70;;;;;;5019485;28;20025;-74
2023/08/16 04:43:33;;;;;;;8.25;4.70;;;19.70;78.10;;;;;;5036595;28;20032;-76
2023/08/16 04:45:58;;;;;;;7.15;4.70;;;19.80;78.30;;;;;;5036995;28;20029;-72
2023/08/16 04:48:24;;;;;;;6.43;5.43;;;19.70;78.20;;;;;;5036461;28;20413;-73
2023/08/16 04:50:49;;;;;;;7.85;4.57;;;19.80;78.20;;;;;;5036253;28;20029;-83
2023/08/16 04:53:15;;;;;;;6.55;4.53;;;19.80;78.10;;;;;;5036512;28;20021;-74
2023/08/16 04:55:40;;;;;;;7.85;4.97;;;19.80;78.10;;;;;;5036136;28;20042;-92
2023/08/16 04:58:06;;;;;;;6.70;4.45;;;19.80;77.90;;;;;;5036225;28;20075;-72
2023/08/16 05:00:31;;;;;;;8.73;4.68;;;19.80;77.80;;;;;;5018443;28;20033;-73
2023/08/16 05:02:57;;;;;;;7.55;4.72;;;19.80;77.90;;;;;;5035925;28;20033;-72
2023/08/16 05:05:22;;;;;;;4.72;4.32;;;19.80;78.10;;;;;;5036084;28;20057;-72
2023/08/16 05:07:48;;;;;;;7.07;4.35;;;19.90;78.20;;;;;;5036613;28;20040;-72
2023/08/16 05:10:14;;;;;;;7.97;4.80;;;19.90;78.10;;;;;;5036058;28;20036;-72
2023/08/16 05:12:39;;;;;;;7.00;4.80;;;20.00;77.90;;;;;;5036179;28;20477;-72
2023/08/16 05:15:06;;;;;;;7.45;4.60;;;20.00;77.70;;;;;;5035534;28;20037;-74
2023/08/16 05:17:31;;;;;;;9.05;4.60;;;20.10;77.80;;;;;;5039338;28;20122;-72
2023/08/16 05:19:57;;;;;;;8.13;6.00;;;20.20;77.50;;;;;;5035688;28;20431;-72
2023/08/16 05:22:24;;;;;;;9.40;5.53;;;20.20;77.50;;;;;;5035764;28;20067;-73
2023/08/16 05:24:50;;;;;;;8.75;4.88;;;20.30;77.70;;;;;;5035455;28;20025;-72
2023/08/16 05:27:15;;;;;;;7.60;5.22;;;20.30;77.60;;;;;;5035423;28;20033;-72
2023/08/16 05:29:42;;;;;;;7.13;5.07;;;20.30;77.40;;;;;;5034294;28;20037;-72
2023/08/16 05:32:08;;;;;;;7.03;5.05;;;20.50;77.30;;;;;;5035623;28;20021;-71
2023/08/16 05:34:34;;;;;;;9.98;4.97;;;20.50;77.10;;;;;;5034848;28;20136;-71
2023/08/16 05:37:00;;;;;;;7.75;5.47;;;20.60;77.10;;;;;;5017246;28;20533;-71
2023/08/16 05:39:26;;;;;;;7.28;5.05;;;20.60;77.00;;;;;;5017414;28;20044;-73
2023/08/16 05:41:51;;;;;;;9.48;6.10;;;20.70;77.30;;;;;;5035117;28;20101;-72
2023/08/16 05:44:17;;;;;;;6.60;5.97;;;20.70;77.40;;;;;;5034865;28;20117;-72
2023/08/16 05:46:42;;;;;;;8.48;6.13;;;20.70;77.60;;;;;;5035217;28;20040;-73
2023/08/16 05:49:08;;;;;;;11.40;6.30;;;20.70;77.70;;;;;;5034850;28;20025;-74
2023/08/16 05:51:34;;;;;;;8.27;6.00;;;20.80;77.60;;;;;;5034742;28;20036;-75
2023/08/16 05:54:01;;;;;;;10.07;6.63;;;20.80;77.60;;;;;;5034712;28;20116;-73
2023/08/16 05:56:27;;;;;;;8.32;6.38;;;20.70;78.10;;;;;;5034685;28;20037;-73
2023/08/16 05:58:52;;;;;;;10.45;6.78;;;20.60;78.70;;;;;;5034838;28;20021;-74
2023/08/16 06:01:18;;;;;;;9.95;7.05;;;20.70;79.00;;;;;;5034759;28;20025;-73
2023/08/16 06:03:43;;;;;;;8.23;7.00;;;20.70;78.90;;;;;;5034557;28;20026;-72
2023/08/16 06:06:09;;;;;;;11.13;7.53;;;20.70;78.90;;;;;;5034443;28;20502;-72
2023/08/16 06:08:35;;;;;;;10.43;8.40;;;20.70;79.00;;;;;;5034391;28;20444;-72
2023/08/16 06:11:01;;;;;;;11.07;7.95;;;20.70;79.40;;;;;;5035221;28;20063;-81
2023/08/16 06:13:27;;;;;;;9.90;7.70;;;20.60;79.70;;;;;;5036571;28;20025;-84
2023/08/16 06:15:52;;;;;;;11.02;7.75;;;20.70;80.00;;;;;;5018052;28;20041;-86
2023/08/16 06:18:18;;;;;;;9.05;7.07;;;20.60;79.90;;;;;;5017975;28;20026;-81
2023/08/16 06:20:43;;;;;;;7.70;6.45;;;20.60;79.80;;;;;;5035559;28;20029;-81
2023/08/16 06:23:10;;;;;;;8.35;6.63;;;20.70;79.40;;;;;;5036631;28;20021;-87
2023/08/16 06:25:36;;;;;;;7.20;6.35;;;20.80;79.50;;;;;;5035771;28;20021;-89
2023/08/16 06:28:01;;;;;;;6.80;6.13;;;20.80;79.20;;;;;;5035988;28;20037;-88
2023/08/16 06:30:27;;;;;;;6.60;5.72;;;20.90;79.00;;;;;;5017795;28;20161;-88
2023/08/16 06:32:53;;;;;;;10.43;6.35;;;21.10;78.80;;;;;;5036155;28;20030;-77
2023/08/16 06:35:18;;;;;;;6.50;5.88;;;21.20;78.30;;;;;;5036588;28;20041;-87
2023/08/16 06:37:46;;;;;;;6.97;5.95;;;21.30;77.70;;;;;;5042642;28;20068;-85
2023/08/16 06:40:12;;;;;;;7.18;5.75;;;21.40;77.20;;;;;;5042867;28;20052;-75
2023/08/16 06:42:39;;;;;;;8.15;5.65;;;21.50;76.90;;;;;;5052729;28;20029;-77
2023/08/16 06:45:06;;;;;;;6.78;5.47;;;21.60;76.40;;;;;;5049256;28;20081;-87
2023/08/16 06:47:32;;;;;;;8.60;5.72;;;21.80;75.90;;;;;;5040842;28;20017;-90
2023/08/16 06:49:57;;;;;;;7.22;5.93;;;21.90;75.50;;;;;;5043477;28;20121;-92
2023/08/16 06:52:23;;;;;;;6.70;6.00;;;21.90;75.30;;;;;;5039998;28;20033;-79
2023/08/16 06:54:48;;;;;;;8.77;6.65;;;22.00;75.50;;;;;;5037239;28;20048;-89
2023/08/16 06:57:14;;;;;;;8.32;6.63;;;22.10;74.40;;;;;;5035869;28;20047;-88
2023/08/16 06:59:40;;;;;;;7.70;6.05;;;22.20;74.20;;;;;;5039752;28;20036;-85
2023/08/16 07:02:07;;;;;;;7.57;5.57;;;22.30;74.10;;;;;;5040066;28;20018;-86
2023/08/16 07:04:33;;;;;;;6.18;5.03;;;22.40;73.90;;;;;;5028269;28;20168;-80
2023/08/16 07:06:59;;;;;;;10.23;5.90;;;22.50;73.30;;;;;;5019089;28;20022;-81
2023/08/16 07:09:24;;;;;;;7.20;5.03;;;22.60;73.00;;;;;;5015136;28;20028;-79
2023/08/16 07:11:50;;;;;;;6.22;4.53;;;22.70;72.70;;;;;;4997346;28;20123;-79
2023/08/16 07:14:15;;;;;;;5.50;4.82;;;22.80;72.40;;;;;;5014111;28;20117;-85
2023/08/16 07:16:41;;;;;;;5.10;4.60;;;23.00;72.50;;;;;;5015385;28;20081;-81
2023/08/16 07:19:08;;;;;;;6.50;4.72;;;23.20;72.10;;;;;;5015005;28;20073;-77
2023/08/16 07:21:35;;;;;;;5.13;4.63;;;23.40;71.30;;;;;;5013899;28;20505;-73
2023/08/16 07:24:01;;;;;;;6.60;4.70;;;23.60;70.50;;;;;;5016425;28;20042;-76
2023/08/16 07:26:27;;;;;;;8.00;4.80;;;23.70;69.40;;;;;;5019879;28;20065;-73
2023/08/16 07:28:53;;;;;;;5.45;3.85;;;23.90;69.20;;;;;;5000368;28;20021;-73
2023/08/16 07:31:18;;;;;;;5.57;4.35;;;23.90;68.80;;;;;;5018111;28;20068;-79
2023/08/16 07:33:44;;;;;;;4.63;4.15;;;24.10;67.80;;;;;;5013690;28;20037;-73
2023/08/16 07:36:09;;;;;;;6.40;3.72;;;24.30;67.40;;;;;;5013925;28;20037;-80
2023/08/16 07:38:35;;;;;;;7.88;4.65;;;24.50;67.00;;;;;;5013937;28;20390;-82
2023/08/16 07:41:01;;;;;;;9.73;4.40;;;24.70;66.30;;;;;;5013554;28;20022;-80
2023/08/16 07:43:31;;;;;;;6.38;4.43;;;24.80;65.00;;;;;;5013239;28;20030;-82
2023/08/16 07:45:57;;;;;;;7.45;4.95;;;25.00;65.20;;;;;;5013747;28;20029;-81
2023/08/16 07:48:22;;;;;;;7.22;4.07;;;25.20;64.90;;;;;;5013750;28;20030;-85
2023/08/16 07:50:51;;;;;;;5.90;4.07;;;25.30;64.40;;;;;;4995280;28;20041;-80
2023/08/16 07:53:17;;;;;;;9.27;4.55;;;25.40;62.60;;;;;;5016965;28;20470;-78
2023/08/16 07:55:43;;;;;;;6.03;4.10;;;25.60;62.00;;;;;;5019091;28;20071;-78
2023/08/16 07:58:09;;;;;;;5.65;3.67;;;25.60;61.90;;;;;;5019711;28;20533;-78
2023/08/16 08:00:35;;;;;;;7.93;4.38;;;25.70;60.50;;;;;;5019592;28;20065;-77
2023/08/16 08:03:00;;;;;;;9.40;4.00;;;25.60;58.80;;;;;;5001634;28;20058;-80
2023/08/16 08:05:26;;;;;;;6.10;4.20;;;25.50;59.40;;;;;;5024824;28;20133;-80
2023/08/16 08:07:54;;;;;;;6.20;4.47;;;25.50;59.00;;;;;;5019575;28;20025;-78
2023/08/16 08:10:20;;;;;;;6.18;4.32;;;25.60;59.60;;;;;;5019528;28;20038;-80
2023/08/16 08:12:46;;;;;;;6.03;3.78;;;25.70;60.10;;;;;;5019372;28;20162;-78
2023/08/16 08:15:11;;;;;;;8.10;4.55;;;25.80;59.70;;;;;;5001825;28;20034;-81
2023/08/16 08:17:37;;;;;;;7.68;4.30;;;25.80;57.40;;;;;;5019187;28;20117;-80
2023/08/16 08:20:04;;;;;;;6.55;4.43;;;25.80;57.90;;;;;;5019670;28;20040;-80
2023/08/16 08:22:30;;;;;;;5.47;4.45;;;25.90;58.00;;;;;;5019671;28;20054;-81
2023/08/16 08:24:56;;;;;;;5.35;4.20;;;25.90;58.10;;;;;;5019121;28;20540;-81
2023/08/16 08:27:21;;;;;;;7.20;4.60;;;25.90;58.00;;;;;;5018987;28;20026;-80
2023/08/16 08:29:47;;;;;;;8.55;4.50;;;25.80;58.30;;;;;;5019459;28;20036;-79
2023/08/16 08:32:12;;;;;;;8.05;4.97;;;25.80;58.40;;;;;;5001809;28;20026;-80
2023/08/16 08:34:39;;;;;;;7.13;5.03;;;25.70;58.40;;;;;;5019448;28;20092;-79
2023/08/16 08:37:05;;;;;;;6.18;4.50;;;25.60;59.10;;;;;;5019329;28;20660;-81
2023/08/16 08:39:32;;;;;;;8.07;5.10;;;25.70;58.80;;;;;;5019542;28;20106;-81
2023/08/16 08:41:58;;;;;;;6.97;5.00;;;25.90;58.90;;;;;;5019586;28;20014;-82
2023/08/16 08:44:24;;;;;;;6.15;4.72;;;26.00;58.50;;;;;;5019410;28;20063;-81
2023/08/16 08:46:50;;;;;;;7.47;4.32;;;26.20;57.10;;;;;;5001887;28;20475;-82
2023/08/16 08:49:15;;;;;;;8.05;4.53;;;26.30;56.50;;;;;;5019498;28;20034;-82
2023/08/16 08:51:41;;;;;;;4.43;3.88;;;26.40;57.00;;;;;;5019808;28;20429;-82
2023/08/16 08:54:07;;;;;;;5.95;4.00;;;26.60;56.90;;;;;;5019681;28;20073;-82
2023/08/16 08:56:33;;;;;;;7.63;4.35;;;26.80;56.30;;;;;;5019704;28;20061;-82
2023/08/16 08:59:01;;;;;;;7.03;4.10;;;27.00;56.30;;;;;;5020117;28;20018;-82
2023/08/16 09:01:27;;;;;;;5.70;4.22;;;27.10;55.70;;;;;;5019643;28;20022;-83
2023/08/16 09:03:56;;;;;;;6.53;4.13;;;27.20;55.70;;;;;;5018905;28;20029;-83
2023/08/16 09:06:22;;;;;;;8.60;4.53;;;27.40;54.80;;;;;;5016395;28;20046;-82
2023/08/16 09:08:48;;;;;;;4.35;3.90;;;27.40;54.70;;;;;;5016627;28;20022;-82
2023/08/16 09:11:14;;;;;;;7.05;4.07;;;27.50;55.10;;;;;;5016620;28;20054;-82
2023/08/16 09:13:40;;;;;;;6.03;4.32;;;27.60;54.90;;;;;;5016653;28;20061;-82
2023/08/16 09:16:06;;;;;;;6.25;4.35;;;27.70;54.50;;;;;;4998651;28;20453;-82
2023/08/16 09:18:31;;;;;;;5.50;4.13;;;27.80;54.00;;;;;;5016283;28;20030;-81
2023/08/16 09:21:00;;;;;;;7.65;4.22;;;27.80;53.70;;;;;;5017406;28;20032;-82
2023/08/16 09:23:26;;;;;;;7.35;4.63;;;27.90;54.50;;;;;;5016841;28;20114;-81
2023/08/16 09:25:52;;;;;;;8.05;4.90;;;27.90;53.20;;;;;;5018334;28;20033;-81
2023/08/16 09:28:18;;;;;;;5.35;4.85;;;27.90;55.00;;;;;;5022585;28;20030;-82
2023/08/16 09:30:44;;;;;;;10.88;4.75;;;27.90;53.70;;;;;;4998232;28;20494;-82
2023/08/16 09:33:14;;;;;;;8.55;4.95;;;27.90;54.60;;;;;;5015342;28;20107;-82
2023/08/16 09:35:54;;;;;;;7.30;4.22;;;27.90;53.30;;;;;;5015336;28;20030;-81
2023/08/16 09:38:22;;;;;;;8.02;4.47;;;27.80;53.60;;;;;;5015686;28;20408;-81
2023/08/16 09:40:49;;;;;;;7.75;4.75;;;28.00;55.00;;;;;;5015540;28;20052;-80
2023/08/16 09:43:15;;;;;;;8.43;5.10;;;28.10;53.80;;;;;;5015316;28;20101;-79
2023/08/16 09:45:41;;;;;;;6.43;4.40;;;28.10;54.90;;;;;;5015668;28;20052;-81
2023/08/16 09:48:09;;;;;;;6.75;4.30;;;28.30;54.20;;;;;;4997703;28;20033;-80
2023/08/16 09:50:35;;;;;;;6.22;4.57;;;28.40;53.60;;;;;;5015208;28;20026;-81
2023/08/16 09:53:04;;;;;;;6.68;4.38;;;28.60;53.30;;;;;;5015266;28;20030;-81
2023/08/16 09:55:31;;;;;;;7.20;4.22;;;28.80;52.50;;;;;;5015272;28;20029;-80
2023/08/16 09:58:00;;;;;;;7.93;4.28;;;29.00;51.80;;;;;;5014972;28;20045;-78
2023/08/16 10:00:28;;;;;;;4.70;4.05;;;29.10;51.60;;;;;;5015379;28;20105;-73
2023/08/16 10:02:55;;;;;;;5.72;3.83;;;29.30;51.30;;;;;;5015764;28;20036;-77
2023/08/16 10:05:21;;;;;;;7.00;4.03;;;29.40;50.10;;;;;;5014837;28;20050;-77
2023/08/16 10:07:48;;;;;;;7.50;4.18;;;29.50;48.60;;;;;;5015634;28;20030;-76
2023/08/16 10:10:14;;;;;;;5.43;4.13;;;29.50;47.90;;;;;;5016287;28;20026;-76
2023/08/16 10:12:41;;;;;;;8.23;4.40;;;29.70;48.90;;;;;;5015933;28;20022;-76
2023/08/16 10:15:07;;;;;;;5.82;4.25;;;29.80;48.00;;;;;;5014924;28;20034;-74
2023/08/16 10:17:37;;;;;;;8.25;4.07;;;29.80;47.00;;;;;;5013914;28;20389;-77
2023/08/16 10:20:09;;;;;;;8.38;4.25;;;29.90;47.40;;;;;;5014648;28;20523;-77
2023/08/16 10:22:38;;;;;;;7.75;4.25;;;30.10;46.10;;;;;;5014258;28;20486;-79
2023/08/16 10:25:12;;;;;;;8.88;4.20;;;30.20;45.00;;;;;;5015028;28;20022;-77
2023/08/16 10:27:41;;;;;;;6.60;4.47;;;30.10;45.40;;;;;;5014927;28;20057;-83
2023/08/16 10:30:12;;;;;;;6.90;3.90;;;29.90;46.50;;;;;;5005048;28;20438;-79
2023/08/16 10:32:41;;;;;;;8.48;3.38;;;30.10;46.30;;;;;;4987600;28;20029;-76
2023/08/16 10:35:08;;;;;;;7.45;4.22;;;30.30;46.00;;;;;;4987252;28;20160;-80
2023/08/16 10:37:34;;;;;;;8.48;3.22;;;30.60;45.10;;;;;;5005789;28;20030;-83
2023/08/16 10:40:00;;;;;;;5.85;3.42;;;30.80;43.40;;;;;;5004861;28;20052;-85
2023/08/16 10:42:26;;;;;;;6.10;4.15;;;31.00;43.30;;;;;;4987067;28;20014;-85
2023/08/16 10:44:52;;;;;;;7.65;3.80;;;31.10;42.70;;;;;;5006049;28;20018;-85
2023/08/16 10:47:28;;;;;;;8.88;3.65;;;31.20;40.50;;;;;;5006398;28;20506;-85
2023/08/16 10:49:54;;;;;;;6.97;3.40;;;31.40;40.80;;;;;;4995455;28;20022;-81
2023/08/16 10:52:29;;;;;;;6.15;3.55;;;31.40;39.00;;;;;;5022609;28;20033;-73
2023/08/16 10:54:55;;;;;;;;;;;31.40;38.20;;;;;;5027297;28;20037;-74
2023/08/16 10:57:27;;;;;;;9.63;4.60;;;31.60;39.30;;;;;;5019174;28;19912;-78
2023/08/16 11:00:03;;;;;;;6.07;3.47;;;31.80;38.70;;;;;;5027047;28;20025;-82
2023/08/16 11:02:30;;;;;;;6.15;3.10;;;31.90;37.50;;;;;;5024544;28;20022;-75
2023/08/16 11:04:56;;;;;;;4.40;2.70;;;32.00;38.90;;;;;;5019593;28;20050;-80
2023/08/16 11:07:22;;;;;;;9.10;2.83;;;32.20;38.00;;;;;;4992203;28;20025;-85
2023/08/16 11:09:48;;;;;;;4.65;3.20;;;32.30;36.30;;;;;;4987597;28;20030;-84
2023/08/16 11:12:15;;;;;;;6.68;2.67;;;32.30;36.40;;;;;;4988021;28;20022;-79
2023/08/16 11:14:43;;;;;;;5.63;2.92;;;32.40;34.60;;;;;;5006290;28;20198;-86
2023/08/16 11:17:09;;;;;;;4.65;2.88;;;32.30;33.80;;;;;;5006577;28;20022;-84
2023/08/16 11:19:34;;;;;;;6.95;2.75;;;32.20;34.30;;;;;;5004443;28;20026;-82
2023/08/16 11:22:05;;;;;;;2.97;2.60;;;32.30;34.60;;;;;;5003452;28;20579;-83
2023/08/16 11:24:31;;;;;;;7.05;2.35;;;32.50;35.40;;;;;;4977222;28;20038;-78
2023/08/16 11:26:57;;;;;;;3.45;2.58;;;32.60;34.60;;;;;;4995937;28;20023;-81
2023/08/16 11:29:22;;;;;;;3.97;2.28;;;32.60;32.90;;;;;;4996804;28;20494;-80
2023/08/16 11:31:50;;;;;;;10.43;3.08;;;32.60;32.80;;;;;;4996650;28;20098;-81
2023/08/16 11:34:15;;;;;;;3.95;2.70;;;32.60;33.70;;;;;;4998112;28;20113;-83
2023/08/16 11:36:41;;;;;;;5.25;3.00;;;32.50;33.40;;;;;;4995540;28;20068;-80
2023/08/16 11:39:09;;;;;;;4.28;2.60;;;32.40;33.90;;;;;;4994209;28;20019;-75
2023/08/16 11:41:36;;;;;;;3.63;2.45;;;32.50;33.50;;;;;;4994279;28;20117;-73
2023/08/16 11:44:01;;;;;;;4.80;2.60;;;32.80;33.90;;;;;;4994372;28;20015;-79
2023/08/16 11:46:27;;;;;;;5.47;2.80;;;33.30;33.60;;;;;;4994432;28;20126;-73
2023/08/16 11:48:55;;;;;;;3.35;2.40;;;33.70;31.90;;;;;;4995069;28;20027;-73
2023/08/16 11:51:20;;;;;;;3.22;2.55;;;33.70;30.50;;;;;;4977561;28;20464;-73
2023/08/16 11:53:46;;;;;;;4.13;2.50;;;33.50;30.70;;;;;;4993895;28;20022;-73
2023/08/16 11:56:12;;;;;;;4.07;2.67;;;33.30;31.10;;;;;;4993694;28;20037;-73
2023/08/16 11:58:48;;;;;;;3.35;2.58;;;33.20;31.30;;;;;;4993520;28;20491;-75
2023/08/16 12:01:15;;;;;;;3.50;2.30;;;33.20;31.00;;;;;;4993280;28;20030;-80
2023/08/16 12:03:42;;;;;;;5.20;2.58;;;33.60;32.50;;;;;;4993601;28;20019;-73
2023/08/16 12:06:09;;;;;;;7.00;2.90;;;34.00;32.00;;;;;;5011229;28;20129;-73
2023/08/16 12:08:35;;;;;;;5.90;2.55;;;34.30;30.80;;;;;;5013127;28;20104;-78
2023/08/16 12:11:02;;;;;;;5.07;2.60;;;34.60;29.90;;;;;;5013049;28;20025;-74
2023/08/16 12:13:28;;;;;;;5.22;2.50;;;34.70;29.40;;;;;;4995674;28;20386;-74
2023/08/16 12:15:54;;;;;;;5.38;2.42;;;34.40;30.60;;;;;;4997461;28;20390;-73
2023/08/16 12:18:21;;;;;;;3.90;2.42;;;34.10;30.80;;;;;;5015352;28;20030;-72
2023/08/16 12:20:50;;;;;;;7.35;2.58;;;34.10;30.40;;;;;;5013491;28;20033;-73
2023/08/16 12:23:17;;;;;;;4.82;2.90;;;33.80;30.60;;;;;;5012514;28;20026;-72
2023/08/16 12:25:43;;;;;;;6.35;2.63;;;33.30;31.80;;;;;;5012305;28;20026;-73
2023/08/16 12:28:09;;;;;;;4.85;2.53;;;33.00;32.50;;;;;;5012770;28;20014;-72
2023/08/16 12:30:34;;;;;;;4.93;3.03;;;32.70;32.30;;;;;;5012548;28;20449;-73
2023/08/16 12:33:00;;;;;;;4.85;2.50;;;32.30;32.70;;;;;;5012612;28;20053;-78
2023/08/16 12:35:26;;;;;;;4.97;2.65;;;32.20;33.30;;;;;;4994895;28;20034;-73
2023/08/16 12:37:51;;;;;;;4.07;2.40;;;32.20;33.80;;;;;;5012505;28;20033;-76
2023/08/16 12:40:17;;;;;;;5.47;2.58;;;32.20;33.50;;;;;;5015825;28;20108;-74